Time;durP1;ratioP1;P1;durP2;ratioP2;P2;SDS_P1;SDS_P2;PMS_P1;PMS_P2;Temp;Humidity;BMP_temperature;BMP_pressure;BME280_temperature;BME280_humidity;BME280_pressure;Samples;Min_cycle;Max_cycle;Signal;HPM_P1;HPM_P2
2021/03/24 00:00:40;;;;;;;12.60;9.70;;;3.50;99.90;;;;;;5053824;28;20177;-70
2021/03/24 00:03:07;;;;;;;14.47;9.37;;;3.40;99.90;;;;;;5056266;28;20254;-70
2021/03/24 00:05:37;;;;;;;13.17;9.27;;;3.30;99.90;;;;;;5056288;28;20249;-71
2021/03/24 00:08:04;;;;;;;10.50;8.53;;;3.30;99.90;;;;;;5056384;28;20183;-71
2021/03/24 00:10:31;;;;;;;12.53;9.23;;;3.30;99.90;;;;;;5054625;28;20170;-70
2021/03/24 00:12:58;;;;;;;15.07;9.23;;;3.30;99.90;;;;;;5054965;28;20178;-71
2021/03/24 00:15:25;;;;;;;9.70;8.47;;;3.30;99.90;;;;;;5056322;28;20206;-71
2021/03/24 00:17:51;;;;;;;11.80;8.27;;;3.30;99.90;;;;;;5056077;28;20669;-71
2021/03/24 00:20:21;;;;;;;11.83;8.53;;;3.30;99.90;;;;;;5055661;28;20265;-71
2021/03/24 00:22:47;;;;;;;12.77;9.20;;;3.30;99.90;;;;;;5056196;28;20201;-71
2021/03/24 00:25:15;;;;;;;11.57;9.07;;;3.20;99.90;;;;;;5054880;28;20548;-70
2021/03/24 00:27:45;;;;;;;13.43;9.00;;;3.20;99.90;;;;;;5055855;28;20198;-71
2021/03/24 00:30:13;;;;;;;12.83;9.80;;;3.10;99.90;;;;;;5055714;28;20179;-71
2021/03/24 00:32:39;;;;;;;13.90;9.23;;;3.10;99.90;;;;;;5055630;28;20188;-71
2021/03/24 00:35:06;;;;;;;14.07;9.67;;;3.10;99.90;;;;;;5055784;28;20179;-71
2021/03/24 00:37:32;;;;;;;11.13;9.13;;;3.10;99.90;;;;;;5055991;28;20205;-71
2021/03/24 00:39:59;;;;;;;13.03;9.87;;;3.10;99.90;;;;;;5055389;28;20587;-71
2021/03/24 00:42:25;;;;;;;15.47;9.60;;;3.00;99.90;;;;;;5056435;28;20193;-71
2021/03/24 00:44:51;;;;;;;14.13;9.37;;;2.90;99.90;;;;;;5055544;28;20189;-68
2021/03/24 00:47:17;;;;;;;13.10;9.90;;;2.90;99.90;;;;;;5054135;28;20191;-70
2021/03/24 00:49:43;;;;;;;15.07;10.53;;;2.90;99.90;;;;;;5051080;28;20201;-71
2021/03/24 00:52:09;;;;;;;13.50;9.47;;;2.90;99.90;;;;;;5055549;28;20654;-70
2021/03/24 00:54:35;;;;;;;18.93;10.47;;;2.90;99.90;;;;;;5055471;28;20212;-70
2021/03/24 00:57:01;;;;;;;13.17;10.33;;;2.90;99.90;;;;;;5055080;28;20312;-71
2021/03/24 00:59:27;;;;;;;14.83;10.13;;;2.90;99.90;;;;;;5055278;28;20541;-71
2021/03/24 01:01:53;;;;;;;17.30;10.30;;;2.90;99.90;;;;;;5055200;28;20198;-71
2021/03/24 01:04:18;;;;;;;17.93;10.40;;;2.80;99.90;;;;;;5054010;28;20325;-71
2021/03/24 01:06:45;;;;;;;13.30;9.53;;;2.80;99.90;;;;;;5055027;28;20693;-71
2021/03/24 01:09:11;;;;;;;14.50;9.90;;;2.80;99.90;;;;;;5055133;28;20188;-71
2021/03/24 01:11:39;;;;;;;14.47;9.70;;;2.80;99.90;;;;;;5054655;28;20605;-70
2021/03/24 01:14:07;;;;;;;13.90;10.27;;;2.90;99.90;;;;;;5055054;28;20219;-71
2021/03/24 01:16:33;;;;;;;15.10;10.10;;;2.80;99.90;;;;;;5055113;28;20205;-70
2021/03/24 01:18:59;;;;;;;14.30;10.00;;;2.80;99.90;;;;;;5046435;28;20179;-70
2021/03/24 01:21:25;;;;;;;12.10;10.30;;;2.80;99.90;;;;;;5054411;28;20700;-71
2021/03/24 01:23:51;;;;;;;16.20;10.13;;;2.70;99.90;;;;;;5054882;28;20202;-70
2021/03/24 01:26:18;;;;;;;13.57;9.90;;;2.70;99.90;;;;;;5054808;28;20202;-71
2021/03/24 01:28:43;;;;;;;14.47;10.60;;;2.70;99.90;;;;;;5054999;28;20170;-70
2021/03/24 01:31:09;;;;;;;15.53;9.97;;;2.60;99.90;;;;;;5054276;28;20228;-71
2021/03/24 01:33:35;;;;;;;14.87;10.80;;;2.70;99.90;;;;;;5054703;28;20174;-70
2021/03/24 01:36:01;;;;;;;18.57;11.37;;;2.70;99.90;;;;;;5054620;28;20264;-70
2021/03/24 01:38:27;;;;;;;14.87;10.63;;;2.70;99.90;;;;;;5054846;28;20174;-70
2021/03/24 01:40:56;;;;;;;18.20;10.83;;;2.60;99.90;;;;;;5054224;28;20648;-70
2021/03/24 01:43:29;;;;;;;14.67;10.80;;;2.60;99.90;;;;;;5054416;28;20280;-70
2021/03/24 01:46:17;;;;;;;13.90;10.47;;;2.60;99.90;;;;;;5054550;28;20275;-69
2021/03/24 01:48:45;;;;;;;18.13;10.77;;;2.60;99.90;;;;;;5054561;28;20550;-71
2021/03/24 01:51:12;;;;;;;15.83;10.30;;;2.60;99.90;;;;;;5054024;28;20662;-71
2021/03/24 01:53:39;;;;;;;15.80;10.50;;;2.50;99.90;;;;;;5054303;28;20191;-71
2021/03/24 01:56:08;;;;;;;16.43;10.87;;;2.50;99.90;;;;;;5054332;28;20221;-70
2021/03/24 01:58:35;;;;;;;14.20;10.57;;;2.50;99.90;;;;;;5054091;28;20182;-70
2021/03/24 02:01:05;;;;;;;14.70;11.13;;;2.40;99.90;;;;;;5053801;28;20188;-70
2021/03/24 02:03:31;;;;;;;17.20;12.43;;;2.40;99.90;;;;;;5054063;28;20671;-70
2021/03/24 02:05:59;;;;;;;19.60;11.20;;;2.40;99.90;;;;;;5054024;28;20200;-70
2021/03/24 02:08:38;;;;;;;17.57;11.17;;;2.40;99.90;;;;;;5054154;28;20232;-70
2021/03/24 02:11:31;;;;;;;15.23;10.67;;;2.30;99.90;;;;;;5053667;28;20227;-70
2021/03/24 02:14:12;;;;;;;13.83;10.87;;;2.40;99.90;;;;;;5052603;28;20167;-70
2021/03/24 02:16:48;;;;;;;17.00;11.20;;;2.30;99.90;;;;;;5052466;28;20202;-69
2021/03/24 02:19:51;;;;;;;14.80;10.60;;;2.20;99.90;;;;;;5053385;28;20231;-71
2021/03/24 02:22:22;;;;;;;15.53;10.83;;;2.20;99.90;;;;;;5053328;28;20758;-71
2021/03/24 02:24:56;;;;;;;16.30;11.07;;;2.10;99.90;;;;;;5053443;28;20169;-70
2021/03/24 02:27:35;;;;;;;18.60;12.17;;;2.10;99.90;;;;;;5052593;28;20605;-71
2021/03/24 02:30:07;;;;;;;16.63;11.07;;;2.10;99.90;;;;;;5053686;28;20180;-70
2021/03/24 02:32:37;;;;;;;16.60;11.53;;;2.10;99.90;;;;;;5052105;28;20247;-70
2021/03/24 02:35:09;;;;;;;16.13;11.80;;;2.20;99.90;;;;;;5050598;28;20174;-71
2021/03/24 02:37:36;;;;;;;16.23;12.47;;;2.20;99.90;;;;;;5047743;28;20189;-71
2021/03/24 02:40:08;;;;;;;16.63;11.60;;;2.20;99.90;;;;;;5051152;28;20182;-71
2021/03/24 02:42:34;;;;;;;15.77;10.53;;;2.10;99.90;;;;;;5051953;28;20193;-71
2021/03/24 02:45:01;;;;;;;16.67;12.00;;;2.10;99.90;;;;;;5053577;28;20170;-70
2021/03/24 02:47:27;;;;;;;14.93;11.03;;;2.10;99.90;;;;;;5053700;28;20299;-70
2021/03/24 02:49:52;;;;;;;15.93;11.27;;;2.10;99.90;;;;;;5053058;28;20618;-71
2021/03/24 02:52:19;;;;;;;12.47;10.23;;;2.10;99.90;;;;;;5052442;28;20663;-71
2021/03/24 02:54:46;;;;;;;18.87;11.17;;;2.10;99.90;;;;;;5047339;28;20245;-70
2021/03/24 02:57:12;;;;;;;21.30;10.63;;;2.00;99.90;;;;;;5039505;28;20221;-70
2021/03/24 02:59:38;;;;;;;16.60;11.10;;;2.00;99.90;;;;;;5053443;28;20169;-71
2021/03/24 03:02:07;;;;;;;15.67;11.73;;;2.00;99.90;;;;;;5053422;28;20219;-70
2021/03/24 03:04:39;;;;;;;18.17;12.03;;;2.00;99.90;;;;;;5053574;28;20247;-71
2021/03/24 03:07:14;;;;;;;16.20;11.87;;;2.00;99.90;;;;;;5053558;28;20739;-71
2021/03/24 03:09:49;;;;;;;19.47;11.83;;;1.90;99.90;;;;;;5053489;28;20252;-70
2021/03/24 03:12:24;;;;;;;14.40;11.37;;;1.90;99.90;;;;;;5053858;28;20176;-70
2021/03/24 03:14:58;;;;;;;16.50;11.03;;;1.90;99.90;;;;;;5053697;28;20711;-70
2021/03/24 03:17:37;;;;;;;16.23;11.33;;;1.80;99.90;;;;;;5053339;28;20201;-71
2021/03/24 03:20:16;;;;;;;19.03;12.00;;;1.80;99.90;;;;;;5050776;28;20213;-71
2021/03/24 03:22:51;;;;;;;16.67;11.20;;;1.70;99.90;;;;;;5052480;28;20227;-71
2021/03/24 03:25:28;;;;;;;17.83;11.90;;;1.70;99.90;;;;;;5053499;28;20200;-70
2021/03/24 03:27:56;;;;;;;19.03;11.87;;;1.70;99.90;;;;;;5053444;28;20161;-70
2021/03/24 03:30:27;;;;;;;14.13;11.47;;;1.70;99.90;;;;;;5053418;28;20253;-71
2021/03/24 03:32:57;;;;;;;17.87;12.73;;;1.60;99.90;;;;;;5053055;28;20174;-71
2021/03/24 03:35:25;;;;;;;18.13;12.47;;;1.70;99.90;;;;;;5056466;28;20177;-70
2021/03/24 03:37:54;;;;;;;18.07;12.27;;;1.70;99.90;;;;;;5056935;28;20173;-71
2021/03/24 03:40:24;;;;;;;16.50;12.03;;;1.70;99.90;;;;;;5056608;28;20207;-70
2021/03/24 03:42:52;;;;;;;18.50;12.20;;;1.70;99.90;;;;;;5056876;28;20193;-71
2021/03/24 03:45:19;;;;;;;15.83;11.87;;;1.80;99.90;;;;;;5057146;28;20180;-71
2021/03/24 03:47:45;;;;;;;18.87;11.93;;;1.80;99.90;;;;;;5057007;28;20212;-70
2021/03/24 03:50:17;;;;;;;19.97;12.60;;;1.80;99.90;;;;;;5056531;28;20676;-71
2021/03/24 03:52:55;;;;;;;18.00;12.50;;;1.80;99.90;;;;;;5056686;28;20185;-70
2021/03/24 03:55:55;;;;;;;14.83;11.37;;;1.80;99.90;;;;;;5056732;28;20177;-70
2021/03/24 03:58:40;;;;;;;17.83;12.63;;;1.70;99.90;;;;;;5070301;22;20669;-73
2021/03/24 04:01:17;;;;;;;17.37;12.27;;;1.70;99.90;;;;;;5036211;28;20171;-73
2021/03/24 04:04:07;;;;;;;17.83;12.23;;;1.70;99.90;;;;;;5036743;28;20193;-73
2021/03/24 04:06:43;;;;;;;19.00;12.53;;;1.70;99.90;;;;;;5029145;28;20186;-73
2021/03/24 04:09:09;;;;;;;17.33;12.43;;;1.70;99.90;;;;;;5036032;28;20665;-73
2021/03/24 04:11:43;;;;;;;19.63;12.27;;;1.60;99.90;;;;;;5036308;28;20200;-73
2021/03/24 04:14:14;;;;;;;21.13;13.00;;;1.70;99.90;;;;;;5036545;28;20184;-73
2021/03/24 04:16:40;;;;;;;17.47;11.77;;;1.70;99.90;;;;;;5036154;28;20183;-73
2021/03/24 04:19:08;;;;;;;19.33;13.40;;;1.60;99.90;;;;;;5034360;28;20203;-73
2021/03/24 04:21:38;;;;;;;21.23;12.93;;;1.60;99.90;;;;;;5034144;28;20611;-73
2021/03/24 04:24:10;;;;;;;19.77;13.33;;;1.60;99.90;;;;;;5036021;28;20641;-73
2021/03/24 04:26:48;;;;;;;16.67;12.63;;;1.50;99.90;;;;;;5035991;28;20217;-73
2021/03/24 04:29:26;;;;;;;19.57;12.60;;;1.50;99.90;;;;;;5035585;28;20236;-73
2021/03/24 04:31:56;;;;;;;18.47;12.33;;;1.40;99.90;;;;;;5033619;28;20184;-73
2021/03/24 04:34:22;;;;;;;17.47;12.40;;;1.30;99.90;;;;;;5034331;28;20185;-73
2021/03/24 04:36:59;;;;;;;19.60;12.67;;;1.20;99.90;;;;;;5036141;28;20535;-73
2021/03/24 04:39:53;;;;;;;18.47;12.97;;;1.20;99.90;;;;;;5035718;28;20176;-73
2021/03/24 04:42:40;;;;;;;16.97;11.70;;;1.20;99.90;;;;;;5033725;28;20276;-73
2021/03/24 04:45:35;;;;;;;20.67;11.90;;;1.20;99.90;;;;;;5021982;28;20257;-73
2021/03/24 04:48:04;;;;;;;16.50;11.33;;;1.20;99.90;;;;;;5024032;28;20202;-73
2021/03/24 04:50:38;;;;;;;15.87;11.67;;;1.10;99.90;;;;;;5034009;28;20178;-73
2021/03/24 04:53:06;;;;;;;25.37;14.53;;;1.10;99.90;;;;;;5035246;28;20174;-73
2021/03/24 04:55:33;;;;;;;17.60;12.03;;;1.00;99.90;;;;;;5035436;28;20667;-73
2021/03/24 04:58:01;;;;;;;17.73;12.10;;;1.00;99.90;;;;;;5036280;28;20222;-73
2021/03/24 05:00:47;;;;;;;20.00;12.77;;;1.00;99.90;;;;;;5046521;28;20170;-72
2021/03/24 05:03:16;;;;;;;19.80;13.07;;;1.00;99.90;;;;;;5021900;28;20198;-73
2021/03/24 05:05:46;;;;;;;19.77;12.93;;;1.10;99.90;;;;;;5016590;28;20175;-73
2021/03/24 05:08:16;;;;;;;17.40;11.97;;;1.20;99.90;;;;;;5026970;28;20273;-73
2021/03/24 05:10:42;;;;;;;20.60;13.33;;;1.20;99.90;;;;;;5032217;28;20714;-73
2021/03/24 05:13:27;;;;;;;21.00;13.23;;;1.10;99.90;;;;;;5036143;28;20179;-73
2021/03/24 05:16:07;;;;;;;20.53;12.80;;;1.10;99.90;;;;;;5034238;28;20189;-72
2021/03/24 05:18:34;;;;;;;24.27;13.90;;;1.10;99.90;;;;;;5035180;28;20206;-72
2021/03/24 05:21:22;;;;;;;22.10;13.40;;;1.10;99.90;;;;;;5033247;28;20182;-73
2021/03/24 05:23:54;;;;;;;22.17;12.77;;;1.00;99.90;;;;;;5035056;28;20170;-73
2021/03/24 05:26:43;;;;;;;19.63;13.53;;;0.90;99.90;;;;;;5034957;28;20194;-73
2021/03/24 05:29:13;;;;;;;24.07;14.53;;;0.90;99.90;;;;;;5034231;28;20208;-72
2021/03/24 05:31:44;;;;;;;22.73;13.70;;;0.90;99.90;;;;;;5022279;28;20179;-73
2021/03/24 05:34:16;;;;;;;22.63;13.37;;;0.90;99.90;;;;;;5027807;28;20174;-73
2021/03/24 05:36:50;;;;;;;24.43;13.27;;;0.90;99.90;;;;;;5034641;28;20174;-73
2021/03/24 05:39:32;;;;;;;18.13;13.33;;;0.90;99.90;;;;;;5021766;28;20191;-73
2021/03/24 05:42:07;;;;;;;22.53;13.73;;;0.80;99.90;;;;;;5027948;28;20660;-73
2021/03/24 05:44:39;;;;;;;25.20;13.47;;;0.90;99.90;;;;;;5031071;28;20170;-73
2021/03/24 05:47:10;;;;;;;21.63;13.43;;;0.90;99.90;;;;;;5034369;28;20167;-72
2021/03/24 05:49:36;;;;;;;23.07;14.10;;;0.90;99.90;;;;;;5033936;28;20170;-73
2021/03/24 05:52:20;;;;;;;19.63;12.53;;;0.90;99.90;;;;;;5017571;28;20280;-73
2021/03/24 05:55:04;;;;;;;22.80;13.43;;;0.90;99.90;;;;;;5028759;28;20657;-73
2021/03/24 05:57:47;;;;;;;24.03;13.57;;;1.00;99.90;;;;;;5034381;28;20214;-73
2021/03/24 06:00:39;;;;;;;21.93;14.07;;;1.00;99.90;;;;;;5033702;28;20170;-73
2021/03/24 06:03:12;;;;;;;25.00;14.83;;;1.10;99.90;;;;;;5034461;28;20236;-71
2021/03/24 06:06:01;;;;;;;30.03;16.70;;;1.10;99.90;;;;;;5033896;28;20180;-72
2021/03/24 06:08:58;;;;;;;36.23;18.83;;;1.20;99.90;;;;;;5021203;28;20233;-73
2021/03/24 06:11:49;;;;;;;28.30;16.80;;;1.20;99.90;;;;;;5040649;28;20174;-73
2021/03/24 06:14:48;;;;;;;23.70;15.10;;;1.30;99.90;;;;;;5034255;28;20163;-73
2021/03/24 06:17:23;;;;;;;27.03;16.27;;;1.30;99.90;;;;;;5034127;28;20588;-73
2021/03/24 06:19:55;;;;;;;19.17;14.27;;;1.30;99.90;;;;;;5033693;28;20170;-73
2021/03/24 06:22:36;;;;;;;26.60;14.90;;;1.30;99.90;;;;;;5019072;28;20276;-73
2021/03/24 06:25:11;;;;;;;23.40;14.40;;;1.30;99.90;;;;;;5021791;28;20166;-73
2021/03/24 06:27:52;;;;;;;25.93;14.93;;;1.40;99.90;;;;;;5031734;28;20201;-73
2021/03/24 06:30:39;;;;;;;21.77;14.67;;;1.40;99.90;;;;;;5032101;28;20190;-73
2021/03/24 06:33:20;;;;;;;24.70;15.50;;;1.50;99.90;;;;;;5032360;28;20175;-73
2021/03/24 06:36:10;;;;;;;24.83;15.33;;;1.50;99.90;;;;;;5033476;28;20178;-73
2021/03/24 06:38:46;;;;;;;24.43;16.17;;;1.50;99.90;;;;;;5028854;28;20197;-74
2021/03/24 06:41:33;;;;;;;27.73;16.37;;;1.60;99.90;;;;;;5019514;28;20175;-74
2021/03/24 06:44:32;;;;;;;24.23;16.40;;;1.60;99.90;;;;;;5029265;28;20204;-73
2021/03/24 06:47:30;;;;;;;26.57;16.23;;;1.70;99.90;;;;;;5019966;28;20170;-73
2021/03/24 06:50:17;;;;;;;27.77;16.00;;;1.70;99.90;;;;;;5032901;28;20174;-73
2021/03/24 06:52:43;;;;;;;28.07;16.40;;;1.80;99.90;;;;;;5028014;28;20178;-73
2021/03/24 06:55:12;;;;;;;31.17;16.27;;;1.80;99.90;;;;;;5030878;28;20182;-73
2021/03/24 06:57:56;;;;;;;28.27;17.53;;;1.90;99.90;;;;;;5029635;28;20707;-73
2021/03/24 07:01:02;;;;;;;25.53;16.77;;;1.90;99.90;;;;;;5026391;28;20187;-74
2021/03/24 07:04:06;;;;;;;27.17;17.07;;;2.00;99.90;;;;;;5015938;28;20303;-73
2021/03/24 07:06:44;;;;;;;28.83;16.50;;;2.10;99.90;;;;;;5026729;28;20261;-73
2021/03/24 07:09:18;;;;;;;29.27;17.03;;;2.20;99.90;;;;;;5037592;28;20195;-73
2021/03/24 07:12:18;;;;;;;25.73;15.60;;;2.30;99.90;;;;;;5033479;28;20178;-74
2021/03/24 07:15:16;;;;;;;27.23;16.80;;;2.40;99.90;;;;;;5033612;28;20178;-73
2021/03/24 07:17:42;;;;;;;27.73;16.37;;;2.50;99.90;;;;;;5025853;28;20217;-73
2021/03/24 07:20:40;;;;;;;23.50;16.63;;;2.60;99.90;;;;;;5021672;28;20543;-73
2021/03/24 07:23:43;;;;;;;28.97;17.30;;;2.60;99.90;;;;;;4995443;28;20214;-73
2021/03/24 07:26:28;;;;;;;26.57;16.67;;;2.70;99.90;;;;;;5027725;28;20228;-73
2021/03/24 07:29:05;;;;;;;23.93;15.77;;;2.70;99.90;;;;;;5020973;28;20562;-73
2021/03/24 07:31:49;;;;;;;29.60;17.97;;;2.80;99.90;;;;;;5025402;28;20178;-73
2021/03/24 07:34:37;;;;;;;28.83;17.17;;;2.90;99.90;;;;;;5032431;28;20175;-73
2021/03/24 07:37:16;;;;;;;25.90;17.63;;;2.90;99.90;;;;;;5025400;28;20252;-73
2021/03/24 07:40:00;;;;;;;36.73;18.83;;;3.00;99.90;;;;;;5028810;28;20168;-73
2021/03/24 07:42:56;;;;;;;29.93;18.80;;;3.10;99.90;;;;;;5019880;28;20205;-73
2021/03/24 07:46:16;;;;;;;28.43;17.37;;;3.20;99.90;;;;;;5014335;28;20175;-72
2021/03/24 07:48:54;;;;;;;41.93;20.80;;;3.30;99.90;;;;;;4958417;28;20945;-73
2021/03/24 07:51:35;;;;;;;51.67;26.47;;;3.40;99.90;;;;;;4971378;28;20721;-74
2021/03/24 07:54:21;;;;;;;45.13;22.20;;;3.50;99.90;;;;;;5011071;28;20309;-73
2021/03/24 07:56:59;;;;;;;43.93;23.43;;;3.60;99.90;;;;;;5029698;28;20654;-74
2021/03/24 07:59:43;;;;;;;42.53;23.77;;;3.60;99.90;;;;;;5032396;28;20691;-73
2021/03/24 08:02:42;;;;;;;46.67;25.93;;;3.80;99.90;;;;;;5032701;28;20183;-73
2021/03/24 08:05:08;;;;;;;41.50;23.07;;;3.90;99.90;;;;;;5024005;28;20229;-73
2021/03/24 08:07:44;;;;;;;46.23;24.83;;;3.90;99.90;;;;;;5030121;28;20202;-73
2021/03/24 08:10:13;;;;;;;40.23;22.47;;;4.00;99.90;;;;;;5032323;28;20660;-73
2021/03/24 08:12:57;;;;;;;38.80;22.57;;;4.00;99.90;;;;;;5031351;28;20672;-73
2021/03/24 08:15:56;;;;;;;41.00;22.60;;;4.10;99.90;;;;;;5026854;28;20596;-73
2021/03/24 08:18:34;;;;;;;39.87;22.47;;;4.30;99.90;;;;;;5027291;28;20201;-75
2021/03/24 08:21:28;;;;;;;38.57;21.03;;;4.40;99.90;;;;;;5030535;28;20180;-73
2021/03/24 08:24:25;;;;;;;40.17;22.60;;;4.40;99.90;;;;;;5032454;28;20659;-73
2021/03/24 08:27:15;;;;;;;42.50;23.30;;;4.50;99.90;;;;;;5031951;28;20614;-73
2021/03/24 08:29:52;;;;;;;39.20;22.07;;;4.50;99.90;;;;;;5035953;28;20222;-73
2021/03/24 08:32:37;;;;;;;39.63;21.60;;;4.70;99.90;;;;;;5035534;28;20200;-73
2021/03/24 08:35:25;;;;;;;35.97;21.40;;;4.70;99.90;;;;;;5017259;28;20164;-73
2021/03/24 08:38:03;;;;;;;43.20;22.57;;;4.80;99.90;;;;;;5021635;28;20209;-73
2021/03/24 08:40:40;;;;;;;40.77;22.27;;;4.90;99.90;;;;;;5024046;28;20165;-73
2021/03/24 08:43:39;;;;;;;41.63;22.10;;;5.00;99.90;;;;;;5035534;28;20206;-73
2021/03/24 08:46:53;;;;;;;36.90;21.30;;;5.10;99.90;;;;;;5035747;28;20640;-73
2021/03/24 08:49:22;;;;;;;40.40;21.03;;;5.20;99.90;;;;;;4974564;28;20203;-73
2021/03/24 08:51:51;;;;;;;35.57;20.53;;;5.30;99.90;;;;;;4974540;28;20760;-73
2021/03/24 08:54:40;;;;;;;38.43;20.90;;;5.40;99.90;;;;;;5004609;28;20204;-73
2021/03/24 08:57:09;;;;;;;39.17;20.13;;;5.50;99.90;;;;;;5029553;28;20179;-74
2021/03/24 08:59:38;;;;;;;37.67;20.50;;;5.70;99.90;;;;;;5014553;28;20194;-74
2021/03/24 09:02:21;;;;;;;39.80;19.50;;;5.70;99.90;;;;;;5025074;28;20694;-73
2021/03/24 09:05:12;;;;;;;32.37;19.07;;;5.80;99.90;;;;;;5027758;28;20177;-73
2021/03/24 09:07:44;;;;;;;28.53;16.77;;;5.90;99.90;;;;;;5028878;28;20198;-73
2021/03/24 09:10:27;;;;;;;26.40;16.37;;;6.10;99.90;;;;;;5023357;28;20177;-73
2021/03/24 09:13:19;;;;;;;26.10;16.13;;;6.10;99.90;;;;;;5032201;28;20656;-73
2021/03/24 09:16:02;;;;;;;28.13;15.37;;;6.20;99.90;;;;;;5020604;28;20177;-73
2021/03/24 09:18:58;;;;;;;27.93;16.27;;;6.30;99.90;;;;;;5024344;28;20253;-73
2021/03/24 09:21:32;;;;;;;26.60;15.50;;;6.40;99.90;;;;;;5019674;28;20178;-73
2021/03/24 09:24:35;;;;;;;23.37;14.33;;;6.60;99.90;;;;;;5018407;28;20179;-74
2021/03/24 09:27:25;;;;;;;23.60;13.77;;;6.60;99.90;;;;;;5030568;28;20251;-74
2021/03/24 09:30:10;;;;;;;22.80;13.20;;;6.70;99.90;;;;;;5031072;28;20198;-74
2021/03/24 09:32:51;;;;;;;15.57;11.63;;;6.70;99.90;;;;;;5025054;28;20185;-71
2021/03/24 09:35:17;;;;;;;21.07;11.47;;;6.80;99.90;;;;;;5028503;28;20575;-74
2021/03/24 09:37:54;;;;;;;11.43;9.83;;;7.00;99.90;;;;;;5030010;28;20228;-73
2021/03/24 09:40:35;;;;;;;15.93;9.40;;;7.00;99.90;;;;;;5020895;28;20185;-73
2021/03/24 09:43:14;;;;;;;14.30;9.57;;;7.10;99.90;;;;;;5021321;28;20746;-73
2021/03/24 09:45:40;;;;;;;15.43;10.23;;;7.10;99.90;;;;;;5020412;28;20210;-73
2021/03/24 09:48:08;;;;;;;13.43;10.23;;;7.30;99.90;;;;;;5017560;28;20214;-74
2021/03/24 09:50:57;;;;;;;11.07;9.43;;;7.40;99.90;;;;;;5023954;28;20179;-74
2021/03/24 09:53:27;;;;;;;12.40;9.00;;;7.40;99.90;;;;;;5024471;28;20190;-73
2021/03/24 09:55:55;;;;;;;15.37;10.10;;;7.50;99.90;;;;;;5027068;28;20187;-74
2021/03/24 09:58:27;;;;;;;13.13;10.27;;;7.50;99.90;;;;;;5015894;28;20615;-74
2021/03/24 10:01:15;;;;;;;16.37;9.10;;;7.70;99.90;;;;;;5012059;28;20257;-74
2021/03/24 10:03:59;;;;;;;17.10;10.20;;;7.80;99.90;;;;;;5019677;28;20615;-73
2021/03/24 10:06:47;;;;;;;15.27;10.60;;;7.90;99.90;;;;;;5026548;28;20175;-73
2021/03/24 10:09:25;;;;;;;12.00;8.67;;;7.90;99.90;;;;;;5028038;28;20240;-73
2021/03/24 10:12:28;;;;;;;16.07;9.40;;;8.10;99.90;;;;;;5023217;28;20174;-73
2021/03/24 10:15:29;;;;;;;13.13;10.10;;;8.10;99.90;;;;;;5021284;28;20182;-73
2021/03/24 10:18:32;;;;;;;13.43;8.97;;;8.10;99.90;;;;;;4972340;28;20568;-74
2021/03/24 10:21:13;;;;;;;18.47;11.27;;;8.10;99.90;;;;;;5025348;28;20178;-73
2021/03/24 10:23:53;;;;;;;16.57;10.40;;;8.30;99.90;;;;;;5029921;28;20199;-73
2021/03/24 10:26:30;;;;;;;18.63;10.87;;;8.40;99.90;;;;;;5025095;28;20182;-73
2021/03/24 10:28:57;;;;;;;15.57;10.97;;;8.50;99.90;;;;;;5026846;28;20202;-73
2021/03/24 10:31:46;;;;;;;16.40;10.87;;;8.50;99.90;;;;;;5020933;28;20183;-73
2021/03/24 10:34:19;;;;;;;18.37;10.87;;;8.70;99.90;;;;;;5027790;28;20680;-74
2021/03/24 10:36:56;;;;;;;12.13;9.70;;;8.90;99.90;;;;;;5028709;28;20175;-74
2021/03/24 10:39:35;;;;;;;18.37;11.37;;;9.00;99.90;;;;;;5028607;28;20600;-74
2021/03/24 10:42:26;;;;;;;17.67;10.87;;;9.00;99.90;;;;;;5025952;28;20202;-73
2021/03/24 10:45:04;;;;;;;17.30;11.93;;;9.20;99.90;;;;;;5023398;28;20190;-73
2021/03/24 10:47:45;;;;;;;18.23;11.40;;;9.20;99.90;;;;;;5018530;28;20203;-74
2021/03/24 10:50:25;;;;;;;18.53;12.00;;;9.30;99.90;;;;;;5023678;28;20174;-74
2021/03/24 10:53:09;;;;;;;19.13;12.03;;;9.40;99.90;;;;;;5019538;28;20180;-75
2021/03/24 10:55:38;;;;;;;12.90;10.37;;;9.60;99.90;;;;;;5020806;28;20179;-74
2021/03/24 10:58:21;;;;;;;22.07;11.03;;;9.90;99.90;;;;;;5019122;28;20729;-74
2021/03/24 11:01:16;;;;;;;21.63;12.33;;;9.90;99.90;;;;;;5015807;28;20180;-73
2021/03/24 11:03:52;;;;;;;21.83;12.40;;;9.90;99.90;;;;;;5024625;28;20223;-74
2021/03/24 11:06:25;;;;;;;20.57;10.77;;;9.80;99.90;;;;;;5027883;28;20238;-74
2021/03/24 11:09:01;;;;;;;23.40;12.80;;;9.90;99.90;;;;;;5029321;28;20265;-74
2021/03/24 11:11:45;;;;;;;20.57;12.97;;;10.10;99.90;;;;;;5024387;28;20634;-74
2021/03/24 11:14:22;;;;;;;16.17;11.33;;;10.20;99.90;;;;;;5022826;28;20179;-74
2021/03/24 11:16:56;;;;;;;21.63;11.20;;;10.40;99.90;;;;;;5028905;28;20176;-74
2021/03/24 11:19:43;;;;;;;17.10;11.47;;;10.70;99.90;;;;;;5023987;28;20222;-74
2021/03/24 11:22:46;;;;;;;12.13;9.20;;;10.70;99.90;;;;;;5022711;28;20300;-74
2021/03/24 11:25:30;;;;;;;13.57;10.40;;;11.00;99.90;;;;;;5020436;28;20188;-74
2021/03/24 11:28:02;;;;;;;12.90;9.87;;;11.10;99.90;;;;;;5023606;28;20196;-74
2021/03/24 11:30:36;;;;;;;11.53;8.87;;;11.30;99.90;;;;;;5019153;28;20179;-74
2021/03/24 11:33:04;;;;;;;12.03;8.20;;;11.50;99.90;;;;;;5018295;28;20672;-74
2021/03/24 11:35:57;;;;;;;12.70;9.37;;;11.60;99.90;;;;;;5018958;28;20197;-74
2021/03/24 11:38:29;;;;;;;12.37;9.27;;;11.70;99.90;;;;;;5026012;28;20799;-74
2021/03/24 11:40:55;;;;;;;11.93;9.07;;;11.70;99.90;;;;;;5026794;28;20194;-74
2021/03/24 11:43:23;;;;;;;13.87;8.40;;;11.60;99.90;;;;;;5028765;28;20667;-74
2021/03/24 11:46:04;;;;;;;11.67;8.83;;;11.50;99.90;;;;;;5026563;28;20178;-74
2021/03/24 11:48:59;;;;;;;10.33;8.70;;;11.50;99.90;;;;;;5024104;28;20749;-73
2021/03/24 11:51:40;;;;;;;11.03;8.13;;;11.60;99.90;;;;;;5032779;28;20605;-74
2021/03/24 11:54:28;;;;;;;13.77;7.93;;;11.70;99.90;;;;;;5023499;28;20181;-74
2021/03/24 11:57:27;;;;;;;9.37;8.37;;;11.80;99.90;;;;;;5025698;28;20192;-74
2021/03/24 12:00:20;;;;;;;13.50;9.43;;;11.80;99.90;;;;;;5030262;28;20550;-74
2021/03/24 12:03:36;;;;;;;16.00;9.53;;;11.80;99.90;;;;;;5038499;28;20252;-75
2021/03/24 12:06:10;;;;;;;14.97;9.43;;;12.10;99.90;;;;;;4983295;28;20204;-74
2021/03/24 12:08:42;;;;;;;13.10;8.57;;;12.40;99.90;;;;;;5027731;28;20574;-74
2021/03/24 12:11:14;;;;;;;11.90;7.47;;;12.70;99.90;;;;;;5025762;28;20543;-74
2021/03/24 12:13:40;;;;;;;9.37;7.00;;;12.90;99.90;;;;;;5028979;28;20329;-75
2021/03/24 12:16:09;;;;;;;11.53;8.10;;;13.10;99.90;;;;;;5029075;28;20221;-75
2021/03/24 12:18:53;;;;;;;13.83;8.43;;;13.00;99.90;;;;;;5029357;28;20216;-75
2021/03/24 12:21:24;;;;;;;9.17;7.97;;;13.00;99.90;;;;;;5032022;28;20205;-74
2021/03/24 12:23:52;;;;;;;8.20;7.03;;;12.90;99.90;;;;;;5027817;28;20677;-74
2021/03/24 12:26:31;;;;;;;9.57;8.27;;;12.90;99.90;;;;;;5031727;28;20181;-74
2021/03/24 12:29:06;;;;;;;12.83;8.40;;;13.00;99.90;;;;;;5030709;28;20217;-74
2021/03/24 12:31:43;;;;;;;13.10;7.00;;;13.20;99.90;;;;;;5032363;28;20185;-75
2021/03/24 12:34:15;;;;;;;8.93;6.60;;;13.40;99.90;;;;;;5028762;28;20601;-74
2021/03/24 12:36:57;;;;;;;7.63;6.77;;;13.50;99.90;;;;;;5029123;28;20744;-75
2021/03/24 12:39:39;;;;;;;8.43;6.80;;;13.70;99.90;;;;;;5030359;28;20696;-75
2021/03/24 12:42:30;;;;;;;9.33;6.10;;;13.70;99.90;;;;;;5024419;28;20209;-75
2021/03/24 12:44:59;;;;;;;5.30;4.73;;;13.60;99.90;;;;;;5017777;28;20196;-74
2021/03/24 12:47:39;;;;;;;6.00;5.17;;;13.40;99.90;;;;;;5029045;28;20197;-75
2021/03/24 12:50:08;;;;;;;9.50;6.57;;;13.40;99.90;;;;;;5024250;28;20238;-74
2021/03/24 12:52:40;;;;;;;8.30;6.33;;;13.70;99.90;;;;;;5024586;28;20174;-75
2021/03/24 12:55:07;;;;;;;12.67;6.33;;;13.90;99.90;;;;;;5025998;28;20170;-74
2021/03/24 12:57:57;;;;;;;8.27;6.33;;;14.00;99.90;;;;;;5029242;28;20566;-74
2021/03/24 13:00:53;;;;;;;8.00;7.07;;;14.10;99.90;;;;;;5040208;23;20191;-74
2021/03/24 13:03:47;;;;;;;6.97;6.10;;;14.30;99.90;;;;;;5028541;28;20221;-75
2021/03/24 13:06:34;;;;;;;5.23;4.73;;;14.40;99.90;;;;;;5025048;28;20296;-76
2021/03/24 13:09:34;;;;;;;7.07;5.83;;;14.50;99.90;;;;;;5030667;28;20582;-75
2021/03/24 13:12:15;;;;;;;6.00;5.43;;;14.50;99.90;;;;;;5028339;28;20229;-74
2021/03/24 13:14:47;;;;;;;6.53;5.63;;;14.30;99.90;;;;;;5020985;28;20189;-76
2021/03/24 13:17:31;;;;;;;6.60;5.10;;;14.10;99.90;;;;;;5026684;28;20668;-75
2021/03/24 13:20:13;;;;;;;6.07;5.43;;;14.10;99.90;;;;;;5030376;28;20188;-76
2021/03/24 13:23:01;;;;;;;6.17;5.27;;;14.10;99.90;;;;;;5023548;28;20207;-74
2021/03/24 13:25:37;;;;;;;8.30;6.07;;;14.00;99.90;;;;;;5028392;28;20238;-74
2021/03/24 13:28:06;;;;;;;5.40;4.83;;;14.00;99.90;;;;;;5026225;28;20180;-74
2021/03/24 13:30:58;;;;;;;7.33;5.97;;;14.00;99.90;;;;;;5031597;28;20202;-75